Time;durP1;ratioP1;P1;durP2;ratioP2;P2;SDS_P1;SDS_P2;PMS_P1;PMS_P2;Temp;Humidity;BMP_temperature;BMP_pressure;BME280_temperature;BME280_humidity;BME280_pressure;Samples;Min_cycle;Max_cycle;Signal;HPM_P1;HPM_P2
2023/10/22 00:02:24;;;;;;;2.77;2.20;;;13.20;99.90;;;;;;4996041;28;20181;-70
2023/10/22 00:04:49;;;;;;;2.70;2.50;;;13.20;99.90;;;;;;5012378;28;20410;-70
2023/10/22 00:07:15;;;;;;;3.30;2.20;;;13.20;99.90;;;;;;5012490;28;20295;-70
2023/10/22 00:09:41;;;;;;;2.53;1.87;;;13.10;99.90;;;;;;5012492;28;20537;-70
2023/10/22 00:12:07;;;;;;;3.43;2.37;;;13.00;99.90;;;;;;5012275;28;20168;-70
2023/10/22 00:14:33;;;;;;;2.57;2.30;;;12.90;99.90;;;;;;5012303;28;20199;-69
2023/10/22 00:16:59;;;;;;;2.60;2.40;;;12.90;99.90;;;;;;5012101;28;20455;-69
2023/10/22 00:19:25;;;;;;;4.10;2.90;;;12.90;99.90;;;;;;5012267;28;20412;-70
2023/10/22 00:21:50;;;;;;;3.40;3.10;;;12.70;99.90;;;;;;5013715;28;20176;-68
2023/10/22 00:24:16;;;;;;;4.07;2.47;;;12.50;99.90;;;;;;5012214;28;20258;-69
2023/10/22 00:26:42;;;;;;;4.30;3.70;;;12.70;99.90;;;;;;5011672;28;20514;-70
2023/10/22 00:29:07;;;;;;;2.70;2.47;;;12.80;99.90;;;;;;5011990;28;20194;-70
2023/10/22 00:31:33;;;;;;;3.40;2.97;;;12.80;99.90;;;;;;5012179;28;20268;-70
2023/10/22 00:33:59;;;;;;;3.07;2.80;;;12.80;99.90;;;;;;5011687;28;20333;-69
2023/10/22 00:36:24;;;;;;;4.13;2.57;;;12.80;99.90;;;;;;5011841;28;20212;-68
2023/10/22 00:38:51;;;;;;;2.47;2.27;;;12.80;99.90;;;;;;5011953;28;20239;-69
2023/10/22 00:41:16;;;;;;;2.53;2.33;;;12.80;99.90;;;;;;5012630;28;20172;-68
2023/10/22 00:43:42;;;;;;;1.83;1.60;;;12.80;99.90;;;;;;5012016;28;20779;-68
2023/10/22 00:46:14;;;;;;;2.20;1.90;;;12.80;99.90;;;;;;5011764;28;20172;-68
2023/10/22 00:48:40;;;;;;;2.50;2.30;;;12.80;99.90;;;;;;5011719;28;20223;-69
2023/10/22 00:51:06;;;;;;;2.90;2.70;;;12.70;99.90;;;;;;4995632;28;20408;-69
2023/10/22 00:53:31;;;;;;;3.30;3.00;;;12.50;99.90;;;;;;5011782;28;20287;-69
2023/10/22 00:55:57;;;;;;;3.03;2.43;;;12.50;99.90;;;;;;5011770;28;20626;-68
2023/10/22 00:58:23;;;;;;;2.43;2.23;;;12.60;99.90;;;;;;5011619;28;20198;-68
2023/10/22 01:00:49;;;;;;;3.10;2.30;;;12.70;99.90;;;;;;5011934;28;20207;-69
2023/10/22 01:03:16;;;;;;;3.60;2.47;;;12.70;99.90;;;;;;5011724;28;20458;-69
2023/10/22 01:05:42;;;;;;;1.97;1.70;;;12.70;99.90;;;;;;5014701;28;20167;-69
2023/10/22 01:08:09;;;;;;;2.50;2.30;;;12.60;99.90;;;;;;5015443;28;20989;-70
2023/10/22 01:10:34;;;;;;;3.57;2.50;;;12.40;99.90;;;;;;4999342;28;20226;-69
2023/10/22 01:13:01;;;;;;;2.37;2.13;;;12.40;99.90;;;;;;4999074;28;20406;-69
2023/10/22 01:15:27;;;;;;;4.07;2.40;;;12.50;99.90;;;;;;5015558;28;20173;-70
2023/10/22 01:17:53;;;;;;;2.70;2.50;;;12.50;99.90;;;;;;5015399;28;20812;-69
2023/10/22 01:20:19;;;;;;;3.43;2.53;;;12.50;99.90;;;;;;5014853;28;20418;-69
2023/10/22 01:22:44;;;;;;;3.60;2.30;;;12.50;99.90;;;;;;5015278;28;20422;-69
2023/10/22 01:25:10;;;;;;;2.90;2.60;;;12.40;99.90;;;;;;5015437;28;20178;-68
2023/10/22 01:27:37;;;;;;;3.07;2.57;;;12.40;99.90;;;;;;5015222;28;20191;-68
2023/10/22 01:30:03;;;;;;;2.53;2.33;;;12.40;99.90;;;;;;5015225;28;20505;-69
2023/10/22 01:32:33;;;;;;;2.30;2.10;;;12.40;99.90;;;;;;5015185;28;20480;-68
2023/10/22 01:34:59;;;;;;;2.43;2.23;;;12.40;99.90;;;;;;5014790;28;20489;-68
2023/10/22 01:37:25;;;;;;;2.30;2.07;;;12.30;99.90;;;;;;5015115;28;20419;-69
2023/10/22 01:39:51;;;;;;;2.70;2.50;;;12.30;99.90;;;;;;5014938;28;20457;-69
2023/10/22 01:42:17;;;;;;;2.80;2.50;;;12.30;99.90;;;;;;5015189;28;20215;-68
2023/10/22 01:44:43;;;;;;;2.77;2.00;;;12.20;99.90;;;;;;5014928;28;20415;-69
2023/10/22 01:47:10;;;;;;;2.43;2.07;;;12.10;99.90;;;;;;5014977;28;20172;-69
2023/10/22 01:49:36;;;;;;;2.53;2.10;;;12.00;99.90;;;;;;5014904;28;20544;-69
2023/10/22 01:52:02;;;;;;;2.20;1.87;;;12.00;99.90;;;;;;5014872;28;20405;-69
2023/10/22 01:54:28;;;;;;;2.10;1.90;;;12.00;99.90;;;;;;5014598;28;20195;-69
2023/10/22 01:56:53;;;;;;;2.60;1.93;;;12.00;99.90;;;;;;5014671;28;20502;-69
2023/10/22 01:59:19;;;;;;;2.60;1.77;;;12.00;99.90;;;;;;5014643;28;20662;-69
2023/10/22 02:01:45;;;;;;;3.70;1.90;;;12.00;99.90;;;;;;5014488;28;20218;-69
2023/10/22 02:04:10;;;;;;;3.00;1.63;;;12.00;99.90;;;;;;5014840;28;20266;-69
2023/10/22 02:06:36;;;;;;;1.70;1.60;;;12.00;99.90;;;;;;5014533;28;20277;-68
2023/10/22 02:09:02;;;;;;;2.80;1.60;;;11.90;99.90;;;;;;5015102;28;20463;-68
2023/10/22 02:11:28;;;;;;;2.60;1.73;;;12.00;99.90;;;;;;5014554;28;20172;-68
2023/10/22 02:13:53;;;;;;;1.50;1.40;;;12.00;99.90;;;;;;4998106;28;20192;-69
2023/10/22 02:16:19;;;;;;;2.63;1.80;;;12.00;99.90;;;;;;5014677;28;20179;-69
2023/10/22 02:18:45;;;;;;;1.83;1.53;;;12.10;99.90;;;;;;4997862;28;20208;-69
2023/10/22 02:21:11;;;;;;;3.30;1.80;;;12.10;99.90;;;;;;5015553;28;20172;-69
2023/10/22 02:23:39;;;;;;;2.47;1.70;;;12.20;99.90;;;;;;5015505;28;20401;-69
2023/10/22 02:26:05;;;;;;;1.80;1.33;;;12.10;99.90;;;;;;5015836;28;20517;-70
2023/10/22 02:28:30;;;;;;;2.90;1.40;;;12.20;99.90;;;;;;5015529;28;20509;-69
2023/10/22 02:30:56;;;;;;;1.60;1.33;;;12.30;99.90;;;;;;5015194;28;20502;-69
2023/10/22 02:33:22;;;;;;;3.00;1.40;;;12.30;99.90;;;;;;5015364;28;20192;-69
2023/10/22 02:35:48;;;;;;;2.70;2.10;;;12.30;99.90;;;;;;4997384;28;20406;-69
2023/10/22 02:38:16;;;;;;;1.30;1.20;;;12.30;99.90;;;;;;5015497;28;20235;-69
2023/10/22 02:40:43;;;;;;;1.67;1.27;;;12.40;99.90;;;;;;5015164;28;20222;-69
2023/10/22 02:43:10;;;;;;;5.07;1.83;;;12.40;99.90;;;;;;5015193;28;20760;-69
2023/10/22 02:45:35;;;;;;;1.87;1.33;;;12.30;99.90;;;;;;5015243;28;20446;-69
2023/10/22 02:48:01;;;;;;;2.83;1.80;;;12.30;99.90;;;;;;5015589;28;20461;-69
2023/10/22 02:50:27;;;;;;;2.17;1.50;;;12.40;99.90;;;;;;5015000;28;20167;-69
2023/10/22 02:52:53;;;;;;;3.37;1.93;;;12.40;99.90;;;;;;5014794;28;20326;-69
2023/10/22 02:55:19;;;;;;;1.90;1.40;;;12.40;99.90;;;;;;4997192;28;20235;-69
2023/10/22 02:57:45;;;;;;;3.83;1.63;;;12.30;99.90;;;;;;5015061;28;20415;-69
2023/10/22 03:00:12;;;;;;;1.83;1.70;;;12.30;99.90;;;;;;5014702;28;20411;-69
2023/10/22 03:02:38;;;;;;;1.57;1.47;;;12.30;99.90;;;;;;5014580;28;20172;-69
2023/10/22 03:05:04;;;;;;;1.87;1.50;;;12.30;99.90;;;;;;5014752;28;20408;-69
2023/10/22 03:07:30;;;;;;;2.23;1.77;;;12.40;99.90;;;;;;5014382;28;20527;-69
2023/10/22 03:09:55;;;;;;;6.93;1.80;;;12.30;99.90;;;;;;4997020;28;20172;-69
2023/10/22 03:12:21;;;;;;;2.20;1.30;;;12.20;99.90;;;;;;5014864;28;20172;-69
2023/10/22 03:14:48;;;;;;;1.73;1.60;;;12.20;99.90;;;;;;5014678;28;20195;-69
2023/10/22 03:17:13;;;;;;;5.50;1.87;;;12.20;99.90;;;;;;5014613;28;20172;-70
2023/10/22 03:19:39;;;;;;;2.00;1.53;;;12.20;99.90;;;;;;5014520;28;20414;-69
2023/10/22 03:22:04;;;;;;;3.30;1.50;;;12.20;99.90;;;;;;5014485;28;20647;-68
2023/10/22 03:24:30;;;;;;;2.70;1.90;;;12.30;99.90;;;;;;5014525;28;20666;-69
2023/10/22 03:26:56;;;;;;;3.37;2.07;;;12.40;99.90;;;;;;5013678;28;20178;-68
2023/10/22 03:29:22;;;;;;;2.20;1.73;;;12.40;99.90;;;;;;5013394;28;20542;-69
2023/10/22 03:31:47;;;;;;;3.10;1.60;;;12.40;99.90;;;;;;5014274;28;20435;-68
2023/10/22 03:34:13;;;;;;;2.90;1.67;;;12.30;99.90;;;;;;5014273;28;20226;-69
2023/10/22 03:36:39;;;;;;;1.93;1.73;;;12.30;99.90;;;;;;4996610;28;20172;-69
2023/10/22 03:39:06;;;;;;;2.10;1.90;;;12.40;99.90;;;;;;5014531;28;20278;-69
2023/10/22 03:41:33;;;;;;;2.57;2.37;;;12.30;99.90;;;;;;5014079;28;20435;-69
2023/10/22 03:43:58;;;;;;;2.50;1.90;;;12.30;99.90;;;;;;5014265;28;20423;-69
2023/10/22 03:46:24;;;;;;;3.00;1.60;;;12.30;99.90;;;;;;5013935;28;20402;-68
2023/10/22 03:48:50;;;;;;;2.77;1.77;;;12.20;99.90;;;;;;5013881;28;20457;-69
2023/10/22 03:51:15;;;;;;;2.77;2.07;;;12.10;99.90;;;;;;5013978;28;20203;-69
2023/10/22 03:53:41;;;;;;;2.10;1.90;;;12.10;99.90;;;;;;5013885;28;20188;-69
2023/10/22 03:56:07;;;;;;;1.97;1.83;;;12.10;99.90;;;;;;5013934;28;20635;-69
2023/10/22 03:58:33;;;;;;;3.13;2.63;;;12.10;99.90;;;;;;5013734;28;20193;-69
2023/10/22 04:00:59;;;;;;;2.80;2.00;;;12.10;99.90;;;;;;5014069;28;20187;-69
2023/10/22 04:03:24;;;;;;;2.20;2.00;;;12.20;99.90;;;;;;5013628;28;20414;-69
2023/10/22 04:05:55;;;;;;;3.33;2.20;;;12.20;99.90;;;;;;5013950;28;20172;-69
2023/10/22 04:08:21;;;;;;;2.70;2.30;;;12.10;99.90;;;;;;5013563;28;20461;-69
2023/10/22 04:10:47;;;;;;;2.70;2.07;;;12.10;99.90;;;;;;5012386;28;20909;-69
2023/10/22 04:13:12;;;;;;;1.90;1.80;;;12.20;99.90;;;;;;5013541;28;20403;-69
2023/10/22 04:15:39;;;;;;;2.67;2.20;;;12.20;99.90;;;;;;5013749;28;20156;-69
2023/10/22 04:18:04;;;;;;;3.60;1.90;;;12.30;99.90;;;;;;5013541;28;20176;-70
2023/10/22 04:20:33;;;;;;;2.33;1.80;;;12.30;99.90;;;;;;5013750;28;20422;-69
2023/10/22 04:22:59;;;;;;;3.10;1.90;;;12.30;99.90;;;;;;5013409;28;20198;-70
2023/10/22 04:25:28;;;;;;;3.67;1.80;;;12.30;99.90;;;;;;5012069;28;20453;-69
2023/10/22 04:27:53;;;;;;;2.00;1.80;;;12.20;99.90;;;;;;5013434;28;20426;-69
2023/10/22 04:30:19;;;;;;;2.20;1.80;;;12.20;99.90;;;;;;5013307;28;20417;-69
2023/10/22 04:32:44;;;;;;;1.50;1.40;;;12.20;99.90;;;;;;5013147;28;20203;-69
2023/10/22 04:35:10;;;;;;;2.60;2.17;;;12.10;99.90;;;;;;5013187;28;20219;-69
2023/10/22 04:37:35;;;;;;;2.17;1.50;;;12.10;99.90;;;;;;4995904;28;20597;-69
2023/10/22 04:40:01;;;;;;;2.03;1.80;;;12.10;99.90;;;;;;5013265;28;20505;-69
2023/10/22 04:42:27;;;;;;;3.23;1.87;;;12.00;99.90;;;;;;5013427;28;20241;-69
2023/10/22 04:44:53;;;;;;;2.40;1.73;;;12.10;99.90;;;;;;5013382;28;20593;-69
2023/10/22 04:47:20;;;;;;;2.13;1.90;;;12.20;99.90;;;;;;5013103;28;20462;-69
2023/10/22 04:49:47;;;;;;;2.60;1.87;;;12.10;99.90;;;;;;4995497;28;20172;-69
2023/10/22 04:52:22;;;;;;;2.27;1.80;;;12.10;99.90;;;;;;5012013;28;20452;-69
2023/10/22 04:54:49;;;;;;;2.00;1.80;;;12.00;99.90;;;;;;5013179;28;20438;-69
2023/10/22 04:57:15;;;;;;;1.73;1.63;;;12.00;99.90;;;;;;5011620;28;20414;-69
2023/10/22 04:59:40;;;;;;;3.50;1.73;;;12.10;99.90;;;;;;5012958;28;20399;-69
2023/10/22 05:02:06;;;;;;;3.10;1.83;;;12.00;99.90;;;;;;5013055;28;20171;-69
2023/10/22 05:04:31;;;;;;;2.90;1.83;;;11.90;99.90;;;;;;5013029;28;20191;-69
2023/10/22 05:06:57;;;;;;;2.87;1.80;;;11.90;99.90;;;;;;5012759;28;20648;-67
2023/10/22 05:09:23;;;;;;;3.87;1.90;;;11.90;99.90;;;;;;5013309;28;20183;-69
2023/10/22 05:11:48;;;;;;;1.90;1.50;;;11.80;99.90;;;;;;5013264;28;20267;-69
2023/10/22 05:14:14;;;;;;;2.67;1.70;;;11.90;99.90;;;;;;5012764;28;20195;-68
2023/10/22 05:16:40;;;;;;;3.20;1.83;;;11.90;99.90;;;;;;5011649;28;20178;-69
2023/10/22 05:19:06;;;;;;;3.97;1.40;;;11.90;99.90;;;;;;5013282;28;20217;-70
2023/10/22 05:21:31;;;;;;;5.00;1.70;;;11.90;99.90;;;;;;4995295;28;20414;-69
2023/10/22 05:23:57;;;;;;;2.87;1.87;;;12.00;99.90;;;;;;5013262;28;20250;-69
2023/10/22 05:26:22;;;;;;;3.20;1.73;;;12.00;99.90;;;;;;5012264;28;20600;-70
2023/10/22 05:28:48;;;;;;;2.63;1.50;;;12.00;99.90;;;;;;5012772;28;20198;-69
2023/10/22 05:31:19;;;;;;;3.50;1.73;;;12.10;99.90;;;;;;5011641;28;20733;-70
2023/10/22 05:33:45;;;;;;;3.63;2.00;;;12.10;99.90;;;;;;5011457;28;20192;-69
2023/10/22 05:36:18;;;;;;;2.47;1.63;;;12.10;99.90;;;;;;5011765;28;20414;-69
2023/10/22 05:38:45;;;;;;;3.23;1.80;;;12.10;99.90;;;;;;5011400;28;20433;-69
2023/10/22 05:41:24;;;;;;;2.60;1.63;;;12.00;99.90;;;;;;5011621;28;20778;-69
2023/10/22 05:43:59;;;;;;;4.23;1.63;;;12.00;99.90;;;;;;5011395;28;20452;-69
2023/10/22 05:46:25;;;;;;;1.90;1.60;;;12.00;99.90;;;;;;4996453;28;20458;-69
2023/10/22 05:48:51;;;;;;;5.73;1.50;;;12.00;99.90;;;;;;5011405;28;20517;-68
2023/10/22 05:51:17;;;;;;;4.60;2.40;;;11.90;99.90;;;;;;5011758;28;20414;-69
2023/10/22 05:53:43;;;;;;;3.90;1.40;;;12.00;99.90;;;;;;5014795;28;20452;-69
2023/10/22 05:56:09;;;;;;;3.50;1.33;;;11.80;99.90;;;;;;5014586;28;20187;-69
2023/10/22 05:58:35;;;;;;;2.93;1.17;;;11.90;99.90;;;;;;5014597;28;20542;-69
2023/10/22 06:01:00;;;;;;;3.20;1.33;;;11.80;99.90;;;;;;5014831;28;20407;-69
2023/10/22 06:03:26;;;;;;;1.53;1.13;;;12.00;99.90;;;;;;5014825;28;20642;-69
2023/10/22 06:05:51;;;;;;;2.77;1.40;;;11.90;99.90;;;;;;5014485;28;20168;-67
2023/10/22 06:08:17;;;;;;;4.97;1.10;;;11.90;99.90;;;;;;5004842;28;20211;-69
2023/10/22 06:10:44;;;;;;;2.90;1.43;;;11.80;99.90;;;;;;5005021;28;20294;-69
2023/10/22 06:13:11;;;;;;;8.47;1.60;;;11.80;99.90;;;;;;5004746;28;20183;-69
2023/10/22 06:15:39;;;;;;;3.10;1.37;;;11.90;99.90;;;;;;5004815;28;20423;-69
2023/10/22 06:18:05;;;;;;;2.63;1.10;;;11.90;99.90;;;;;;5004718;28;20492;-69
2023/10/22 06:20:34;;;;;;;2.27;1.17;;;11.90;99.90;;;;;;5004936;28;20419;-70
2023/10/22 06:23:00;;;;;;;5.47;1.50;;;11.90;99.90;;;;;;5004692;28;20423;-70
2023/10/22 06:25:26;;;;;;;1.87;1.20;;;11.90;99.90;;;;;;5005962;28;20439;-68
2023/10/22 06:27:55;;;;;;;3.80;1.77;;;11.90;99.90;;;;;;5004296;28;20435;-68
2023/10/22 06:30:25;;;;;;;4.97;1.53;;;12.00;99.90;;;;;;5004591;28;20188;-69
2023/10/22 06:32:58;;;;;;;1.80;0.93;;;12.00;99.90;;;;;;5004131;28;20417;-68
2023/10/22 06:35:27;;;;;;;3.70;1.53;;;12.10;99.90;;;;;;5004549;28;20497;-68
2023/10/22 06:37:53;;;;;;;4.73;1.80;;;12.10;99.90;;;;;;5010097;28;20434;-68
2023/10/22 06:40:23;;;;;;;3.60;1.40;;;12.10;99.90;;;;;;5013853;28;20417;-68
2023/10/22 06:42:50;;;;;;;2.77;1.30;;;12.00;99.90;;;;;;5015093;28;20983;-68
2023/10/22 06:45:16;;;;;;;3.40;1.80;;;12.00;99.90;;;;;;5013746;28;20418;-68
2023/10/22 06:47:42;;;;;;;1.97;1.40;;;12.00;99.90;;;;;;5013735;28;20431;-67
2023/10/22 06:50:11;;;;;;;2.50;1.40;;;12.10;99.90;;;;;;5014174;28;20418;-69
2023/10/22 06:52:37;;;;;;;2.53;1.43;;;12.00;99.90;;;;;;5013727;28;20417;-69
2023/10/22 06:55:04;;;;;;;4.37;1.60;;;12.00;99.90;;;;;;5013629;28;20447;-69
2023/10/22 06:57:29;;;;;;;3.90;1.47;;;12.20;99.90;;;;;;4997711;28;20429;-69
2023/10/22 06:59:57;;;;;;;4.30;1.10;;;12.20;99.90;;;;;;5013513;28;20411;-69
2023/10/22 07:02:26;;;;;;;2.87;1.30;;;12.10;99.90;;;;;;5013077;28;20283;-69
2023/10/22 07:04:55;;;;;;;1.97;1.57;;;12.10;99.90;;;;;;5013516;28;20404;-69
2023/10/22 07:07:22;;;;;;;4.37;1.73;;;12.20;99.90;;;;;;5013078;28;20447;-70
2023/10/22 07:09:48;;;;;;;4.73;1.60;;;12.20;99.90;;;;;;5013732;28;20950;-69
2023/10/22 07:12:14;;;;;;;3.53;1.07;;;12.20;99.90;;;;;;5014909;28;20403;-69
2023/10/22 07:14:40;;;;;;;4.47;1.70;;;12.30;99.90;;;;;;5013258;28;21042;-69
2023/10/22 07:17:05;;;;;;;4.67;1.60;;;12.30;99.90;;;;;;5013010;28;20403;-69
2023/10/22 07:19:31;;;;;;;3.07;1.40;;;12.30;99.90;;;;;;5013044;28;20168;-69
2023/10/22 07:21:56;;;;;;;3.97;1.50;;;12.40;99.90;;;;;;5013035;28;20174;-69
2023/10/22 07:24:23;;;;;;;3.00;1.30;;;12.40;99.90;;;;;;5013180;28;20228;-69
2023/10/22 07:26:49;;;;;;;2.03;1.00;;;12.30;99.90;;;;;;5012917;28;20544;-69
2023/10/22 07:29:15;;;;;;;4.50;1.30;;;12.40;99.90;;;;;;5013029;28;20991;-69
2023/10/22 07:31:43;;;;;;;2.30;1.30;;;12.40;99.90;;;;;;5012403;28;20403;-69
2023/10/22 07:34:09;;;;;;;1.87;1.20;;;12.50;99.90;;;;;;5012919;28;20473;-69
2023/10/22 07:36:34;;;;;;;4.40;1.33;;;12.50;99.90;;;;;;5012797;28;20917;-69
2023/10/22 07:39:00;;;;;;;1.87;1.13;;;12.60;99.90;;;;;;5009559;28;20273;-69
2023/10/22 07:41:26;;;;;;;2.83;1.10;;;12.80;99.90;;;;;;5012975;28;20541;-69
2023/10/22 07:43:52;;;;;;;5.23;1.43;;;12.90;99.90;;;;;;5012906;28;20202;-69
2023/10/22 07:46:17;;;;;;;1.50;1.10;;;13.10;99.90;;;;;;5012813;28;20425;-70
2023/10/22 07:48:44;;;;;;;3.63;1.20;;;13.20;99.90;;;;;;5012544;28;20271;-69
2023/10/22 07:51:18;;;;;;;4.93;1.83;;;13.10;99.90;;;;;;5012764;28;20207;-69
2023/10/22 07:53:45;;;;;;;1.87;0.90;;;13.10;99.90;;;;;;5012528;28;20486;-69
2023/10/22 07:56:14;;;;;;;3.83;1.30;;;13.10;99.90;;;;;;5012559;28;20820;-69
2023/10/22 07:58:40;;;;;;;2.80;1.10;;;13.00;99.90;;;;;;5012548;28;20427;-69
2023/10/22 08:01:06;;;;;;;2.20;1.20;;;13.10;99.90;;;;;;4996258;28;20467;-69
2023/10/22 08:03:32;;;;;;;2.13;1.27;;;13.30;99.90;;;;;;5013416;28;20163;-69
2023/10/22 08:05:58;;;;;;;3.07;1.27;;;13.30;99.90;;;;;;5012182;28;20408;-69
2023/10/22 08:08:24;;;;;;;3.83;1.53;;;13.40;99.90;;;;;;5012823;28;20464;-69
2023/10/22 08:10:50;;;;;;;4.13;1.23;;;13.40;99.90;;;;;;5012504;28;20778;-69
2023/10/22 08:13:17;;;;;;;1.80;1.07;;;13.50;99.90;;;;;;5012094;28;20643;-69
2023/10/22 08:15:43;;;;;;;4.33;2.50;;;13.50;99.90;;;;;;5011701;28;20412;-70
2023/10/22 08:18:09;;;;;;;4.83;1.50;;;13.60;99.90;;;;;;5011838;28;20434;-70
2023/10/22 08:20:38;;;;;;;2.40;1.10;;;13.70;99.90;;;;;;5012435;28;20187;-69
2023/10/22 08:23:03;;;;;;;3.07;1.30;;;13.90;99.90;;;;;;5012296;28;20411;-69
2023/10/22 08:25:29;;;;;;;5.40;1.30;;;13.90;99.90;;;;;;4995976;28;20420;-69
2023/10/22 08:27:55;;;;;;;3.40;1.13;;;14.00;99.90;;;;;;5011965;28;20271;-68
2023/10/22 08:30:24;;;;;;;2.80;1.13;;;14.00;99.90;;;;;;5011812;28;20641;-71
2023/10/22 08:32:50;;;;;;;4.47;1.60;;;14.10;99.90;;;;;;5014377;28;20420;-69
2023/10/22 08:35:16;;;;;;;3.07;1.53;;;14.00;99.90;;;;;;5012419;28;20797;-70
2023/10/22 08:37:42;;;;;;;5.10;1.37;;;14.10;99.90;;;;;;5013374;28;20424;-68
2023/10/22 08:40:08;;;;;;;1.57;1.00;;;14.20;99.90;;;;;;5012082;28;20171;-68
2023/10/22 08:42:35;;;;;;;1.53;1.20;;;14.10;99.90;;;;;;5013710;28;20426;-67
2023/10/22 08:45:06;;;;;;;2.40;1.10;;;14.30;99.90;;;;;;5013431;28;20446;-69
2023/10/22 08:47:34;;;;;;;2.97;1.23;;;14.50;99.90;;;;;;5013333;28;20518;-70
2023/10/22 08:50:01;;;;;;;7.33;1.40;;;14.50;99.90;;;;;;4995549;28;20424;-72
2023/10/22 08:52:27;;;;;;;1.90;1.10;;;14.60;99.90;;;;;;5011845;28;20468;-70
2023/10/22 08:54:53;;;;;;;5.10;1.53;;;14.60;99.90;;;;;;5012207;28;20507;-71
2023/10/22 08:57:21;;;;;;;2.37;1.20;;;14.50;99.90;;;;;;5013130;28;20433;-71
2023/10/22 08:59:48;;;;;;;5.23;1.80;;;14.50;99.90;;;;;;5012861;28;20183;-70
2023/10/22 09:02:23;;;;;;;2.20;1.40;;;14.50;99.90;;;;;;5012688;28;20500;-69
2023/10/22 09:04:49;;;;;;;2.70;1.13;;;14.60;99.90;;;;;;5014111;28;20493;-72
2023/10/22 09:07:14;;;;;;;3.13;1.60;;;14.60;99.90;;;;;;5012854;28;20468;-69
2023/10/22 09:09:40;;;;;;;7.63;1.80;;;14.60;99.90;;;;;;5012337;28;20197;-70
2023/10/22 09:12:10;;;;;;;4.57;1.33;;;14.70;99.90;;;;;;5014207;28;20236;-72
2023/10/22 09:14:36;;;;;;;3.83;1.27;;;14.60;99.90;;;;;;5012199;28;20202;-72
2023/10/22 09:17:19;;;;;;;2.50;1.13;;;14.80;99.90;;;;;;5011850;28;20825;-71
2023/10/22 09:19:48;;;;;;;5.10;1.50;;;15.00;99.90;;;;;;5011712;28;20438;-71
2023/10/22 09:22:22;;;;;;;4.20;1.50;;;15.00;99.90;;;;;;5012145;28;20413;-71
2023/10/22 09:24:50;;;;;;;8.40;1.50;;;15.00;99.90;;;;;;5011872;28;20468;-71
2023/10/22 09:27:31;;;;;;;4.13;1.20;;;15.00;99.90;;;;;;5016551;28;20473;-72
2023/10/22 09:30:00;;;;;;;5.07;1.60;;;15.20;99.90;;;;;;5015366;28;20508;-70
2023/10/22 09:32:26;;;;;;;2.57;1.20;;;15.30;99.90;;;;;;5015903;28;20561;-71
2023/10/22 09:34:52;;;;;;;4.50;1.23;;;15.10;99.90;;;;;;5017022;28;21015;-71
2023/10/22 09:37:18;;;;;;;2.30;1.07;;;15.00;99.90;;;;;;5015683;28;20438;-72
2023/10/22 09:39:45;;;;;;;3.33;1.33;;;15.20;99.90;;;;;;5016408;28;20205;-72
2023/10/22 09:42:12;;;;;;;2.30;1.10;;;15.30;99.90;;;;;;5016051;28;20179;-72
2023/10/22 09:44:39;;;;;;;2.83;1.20;;;15.30;99.90;;;;;;5015604;28;20423;-72
2023/10/22 09:47:06;;;;;;;4.83;1.33;;;15.40;99.90;;;;;;5015977;28;20558;-72
2023/10/22 09:49:38;;;;;;;5.20;1.53;;;15.60;99.90;;;;;;5017328;28;20418;-72
2023/10/22 09:52:08;;;;;;;3.73;1.30;;;15.50;99.90;;;;;;5017039;28;20471;-72
2023/10/22 09:54:41;;;;;;;9.83;1.50;;;15.70;99.90;;;;;;5016158;28;20456;-71
2023/10/22 09:57:13;;;;;;;3.37;1.43;;;15.60;99.90;;;;;;5016105;28;20403;-72
2023/10/22 09:59:40;;;;;;;3.23;1.20;;;15.60;99.90;;;;;;5015875;28;20444;-71
2023/10/22 10:02:09;;;;;;;4.13;1.40;;;15.70;99.90;;;;;;5016334;28;20407;-71
2023/10/22 10:04:35;;;;;;;3.73;1.60;;;15.80;99.90;;;;;;5014806;28;20429;-70
2023/10/22 10:07:04;;;;;;;4.27;1.40;;;15.90;99.90;;;;;;5014294;28;20475;-71
2023/10/22 10:09:31;;;;;;;3.80;1.40;;;16.10;99.90;;;;;;5015897;28;20431;-72
2023/10/22 10:12:01;;;;;;;5.93;1.47;;;16.20;99.90;;;;;;4998844;28;20438;-70
2023/10/22 10:14:47;;;;;;;3.63;1.50;;;16.20;99.90;;;;;;5014484;28;20897;-70
2023/10/22 10:17:14;;;;;;;4.87;1.93;;;16.60;99.90;;;;;;5014300;28;20425;-70
2023/10/22 10:19:40;;;;;;;3.63;1.30;;;16.80;99.90;;;;;;5014280;28;20421;-70
2023/10/22 10:22:07;;;;;;;2.83;1.30;;;17.10;99.90;;;;;;5014636;28;20438;-71
2023/10/22 10:24:33;;;;;;;3.03;1.20;;;17.60;99.90;;;;;;5014200;28;20432;-71
2023/10/22 10:26:59;;;;;;;3.27;1.43;;;17.80;99.90;;;;;;5013705;28;20497;-70
2023/10/22 10:29:26;;;;;;;2.70;1.23;;;17.80;99.90;;;;;;4998054;28;20990;-69
2023/10/22 10:31:53;;;;;;;4.50;1.77;;;17.60;99.90;;;;;;5013931;28;20176;-66
2023/10/22 10:34:36;;;;;;;21.40;16.63;;;17.90;99.90;;;;;;5013761;28;20466;-72
2023/10/22 10:37:21;;;;;;;14.10;8.33;;;18.10;99.90;;;;;;4997010;28;20486;-71
2023/10/22 10:39:49;;;;;;;4.50;2.00;;;18.00;99.90;;;;;;5014279;28;20997;-70
2023/10/22 10:42:36;;;;;;;5.83;2.40;;;17.70;99.90;;;;;;5014084;28;20406;-71
2023/10/22 10:45:04;;;;;;;4.50;1.77;;;17.80;99.90;;;;;;5014125;28;20921;-71
2023/10/22 10:47:31;;;;;;;4.30;1.60;;;18.00;99.90;;;;;;5014048;28;20522;-71
2023/10/22 10:49:59;;;;;;;3.27;1.40;;;18.10;99.90;;;;;;4998141;28;20493;-73
2023/10/22 10:52:26;;;;;;;5.30;1.37;;;18.00;99.90;;;;;;5015234;28;20417;-71
2023/10/22 10:55:15;;;;;;;6.00;1.87;;;17.60;99.90;;;;;;5013660;28;20485;-71
2023/10/22 10:57:51;;;;;;;3.40;1.40;;;17.30;99.90;;;;;;4997290;28;20441;-72
2023/10/22 11:00:26;;;;;;;4.00;1.77;;;17.30;99.90;;;;;;5013622;28;20438;-71
2023/10/22 11:02:53;;;;;;;3.13;1.10;;;17.50;99.90;;;;;;5013909;28;20420;-71
2023/10/22 11:05:39;;;;;;;4.07;1.37;;;17.50;99.90;;;;;;5012830;28;20948;-74
2023/10/22 11:08:10;;;;;;;3.37;1.30;;;18.80;99.90;;;;;;4997287;28;20497;-73
2023/10/22 11:10:36;;;;;;;5.37;1.83;;;19.80;99.10;;;;;;4997617;28;20486;-72
2023/10/22 11:13:07;;;;;;;2.47;1.00;;;20.30;97.10;;;;;;4996986;28;20407;-71
2023/10/22 11:15:35;;;;;;;5.70;1.47;;;20.60;95.20;;;;;;5013008;28;20192;-73
2023/10/22 11:18:05;;;;;;;4.13;1.53;;;21.80;93.30;;;;;;4997001;28;20435;-75
2023/10/22 11:20:32;;;;;;;3.50;1.60;;;23.50;90.90;;;;;;4997107;28;20939;-74
2023/10/22 11:22:58;;;;;;;5.47;1.73;;;24.80;86.60;;;;;;4997078;28;20415;-72
2023/10/22 11:25:25;;;;;;;2.97;1.10;;;26.40;77.30;;;;;;4996939;28;20498;-73
2023/10/22 11:27:51;;;;;;;3.97;1.30;;;26.20;70.60;;;;;;5012997;28;20488;-70
2023/10/22 11:30:37;;;;;;;4.80;1.90;;;25.00;71.70;;;;;;5012867;28;20979;-70
2023/10/22 11:33:07;;;;;;;2.77;1.33;;;24.40;73.50;;;;;;4996769;28;20207;-69
2023/10/22 11:35:33;;;;;;;4.87;2.47;;;23.50;73.30;;;;;;5012930;28;20454;-70
2023/10/22 11:37:59;;;;;;;3.23;1.40;;;22.90;76.70;;;;;;5012798;28;20430;-69
2023/10/22 11:40:30;;;;;;;3.50;1.13;;;23.50;76.90;;;;;;5012136;28;20427;-71
2023/10/22 11:43:02;;;;;;;3.00;1.30;;;23.70;75.30;;;;;;5012849;28;20172;-69
2023/10/22 11:45:34;;;;;;;2.30;1.23;;;23.50;74.20;;;;;;5012464;28;20422;-71
2023/10/22 11:48:13;;;;;;;4.27;1.30;;;22.60;76.10;;;;;;5012879;28;20427;-72
2023/10/22 11:50:43;;;;;;;2.97;1.23;;;22.20;78.20;;;;;;5012934;28;20407;-70
2023/10/22 11:53:09;;;;;;;3.33;1.30;;;21.20;79.20;;;;;;5012991;28;20811;-70
2023/10/22 11:55:35;;;;;;;3.70;1.83;;;20.30;81.20;;;;;;5012631;28;20451;-69
2023/10/22 11:58:00;;;;;;;5.17;1.60;;;19.60;83.60;;;;;;4996452;28;20426;-72
2023/10/22 12:00:26;;;;;;;5.30;1.50;;;19.10;84.20;;;;;;5014094;28;20179;-69
2023/10/22 12:02:55;;;;;;;2.60;1.50;;;19.20;85.50;;;;;;5014026;28;20180;-73
2023/10/22 12:05:20;;;;;;;3.43;1.53;;;19.20;85.00;;;;;;5013970;28;20581;-70
2023/10/22 12:07:46;;;;;;;2.80;1.07;;;19.00;85.60;;;;;;5012655;28;20453;-69
2023/10/22 12:10:12;;;;;;;2.97;1.20;;;19.00;87.40;;;;;;4996190;28;20940;-71
2023/10/22 12:12:38;;;;;;;2.70;1.13;;;19.00;87.20;;;;;;5012584;28;20183;-73
2023/10/22 12:15:04;;;;;;;4.17;1.47;;;18.80;86.30;;;;;;5012144;28;20690;-73
2023/10/22 12:17:31;;;;;;;2.67;1.30;;;18.40;87.80;;;;;;5011758;28;20426;-73
2023/10/22 12:19:56;;;;;;;2.07;1.20;;;18.60;89.00;;;;;;5013761;28;20490;-73
2023/10/22 12:22:22;;;;;;;3.80;1.67;;;19.10;90.20;;;;;;5012243;28;20530;-75
2023/10/22 12:24:50;;;;;;;2.80;1.30;;;19.70;86.80;;;;;;5012155;28;20176;-73
2023/10/22 12:27:16;;;;;;;3.10;1.30;;;20.40;87.60;;;;;;5012325;28;20211;-72
2023/10/22 12:29:42;;;;;;;2.23;1.30;;;20.50;83.60;;;;;;5012105;28;20415;-71
2023/10/22 12:32:07;;;;;;;2.87;1.33;;;20.10;85.20;;;;;;5011943;28;20198;-70
2023/10/22 12:34:33;;;;;;;2.30;1.50;;;21.10;83.90;;;;;;5011811;28;20203;-70
2023/10/22 12:36:59;;;;;;;3.20;1.27;;;21.90;79.90;;;;;;5013323;28;20179;-70
2023/10/22 12:39:24;;;;;;;1.57;1.23;;;22.60;80.10;;;;;;4997016;28;20171;-71
2023/10/22 12:41:50;;;;;;;4.00;1.93;;;23.70;78.30;;;;;;5012057;28;20225;-72
2023/10/22 12:44:16;;;;;;;1.47;1.10;;;24.50;74.00;;;;;;5011934;28;20172;-71
2023/10/22 12:46:41;;;;;;;4.03;1.60;;;24.70;71.40;;;;;;5012046;28;20337;-71